Time;durP1;ratioP1;P1;durP2;ratioP2;P2;SDS_P1;SDS_P2;PMS_P1;PMS_P2;Temp;Humidity;BMP_temperature;BMP_pressure;BME280_temperature;BME280_humidity;BME280_pressure;Samples;Min_cycle;Max_cycle;Signal;HPM_P1;HPM_P2
2022/04/02 00:01:56;;;;;;;5.40;3.80;;;2.30;99.90;;;;;;5088632;28;20199;-69
2022/04/02 00:04:22;;;;;;;4.60;3.63;;;2.30;99.90;;;;;;5069936;28;20213;-70
2022/04/02 00:06:49;;;;;;;4.10;3.30;;;2.30;99.90;;;;;;5087740;28;20248;-70
2022/04/02 00:09:16;;;;;;;6.30;3.30;;;2.40;99.90;;;;;;5086910;28;20210;-70
2022/04/02 00:11:43;;;;;;;7.80;2.90;;;2.30;99.90;;;;;;5088680;28;20255;-70
2022/04/02 00:14:09;;;;;;;6.17;3.50;;;2.40;99.90;;;;;;5087215;28;20200;-70
2022/04/02 00:16:36;;;;;;;4.80;2.37;;;2.40;99.90;;;;;;5086383;28;20602;-67
2022/04/02 00:19:03;;;;;;;3.03;2.63;;;2.40;99.90;;;;;;5083645;28;20222;-70
2022/04/02 00:21:29;;;;;;;3.47;2.77;;;2.40;99.90;;;;;;5084108;28;20426;-70
2022/04/02 00:23:56;;;;;;;5.63;2.80;;;2.40;99.90;;;;;;5085587;28;20241;-70
2022/04/02 00:26:24;;;;;;;3.80;2.60;;;2.40;99.90;;;;;;5083620;28;20214;-71
2022/04/02 00:28:51;;;;;;;5.07;2.93;;;2.40;99.90;;;;;;5081808;28;20271;-70
2022/04/02 00:31:19;;;;;;;4.50;3.00;;;2.40;99.90;;;;;;5091781;28;20689;-70
2022/04/02 00:33:47;;;;;;;3.10;2.30;;;2.40;99.90;;;;;;5086083;28;20208;-70
2022/04/02 00:36:15;;;;;;;3.73;2.73;;;2.40;99.90;;;;;;5084615;28;20271;-70
2022/04/02 00:38:42;;;;;;;3.63;2.40;;;2.40;99.90;;;;;;5087486;28;20279;-70
2022/04/02 00:41:09;;;;;;;5.13;2.63;;;2.40;99.90;;;;;;5084550;28;20203;-70
2022/04/02 00:43:44;;;;;;;4.07;2.40;;;2.30;99.90;;;;;;5083819;28;20275;-67
2022/04/02 00:46:12;;;;;;;3.47;2.10;;;2.30;99.90;;;;;;5082069;28;22641;-70
2022/04/02 00:48:40;;;;;;;2.83;2.20;;;2.30;99.90;;;;;;5082321;28;20574;-70
2022/04/02 00:51:10;;;;;;;3.10;2.10;;;2.20;99.90;;;;;;5086102;28;20574;-69
2022/04/02 00:53:42;;;;;;;6.03;2.60;;;2.20;99.90;;;;;;5091208;28;20201;-68
2022/04/02 00:56:08;;;;;;;3.83;2.13;;;2.20;99.90;;;;;;5083382;28;20221;-70
2022/04/02 00:58:35;;;;;;;3.77;2.53;;;2.20;99.90;;;;;;5086506;28;20202;-70
2022/04/02 01:01:02;;;;;;;2.33;1.40;;;2.10;99.90;;;;;;5081498;28;20195;-71
2022/04/02 01:03:29;;;;;;;4.57;2.33;;;2.10;99.90;;;;;;5083639;28;20206;-69
2022/04/02 01:05:56;;;;;;;4.70;2.30;;;2.10;99.90;;;;;;5077137;28;20631;-70
2022/04/02 01:08:23;;;;;;;3.57;2.60;;;2.10;99.90;;;;;;5093722;28;20202;-70
2022/04/02 01:10:49;;;;;;;4.00;2.30;;;2.00;99.90;;;;;;5078421;28;20194;-70
2022/04/02 01:13:16;;;;;;;5.13;2.30;;;2.00;99.90;;;;;;5082516;28;20194;-71
2022/04/02 01:15:44;;;;;;;4.53;2.77;;;2.00;99.90;;;;;;5086567;28;20244;-70
2022/04/02 01:18:11;;;;;;;3.53;2.53;;;2.00;99.90;;;;;;5080695;28;20206;-70
2022/04/02 01:20:38;;;;;;;3.50;2.23;;;1.90;99.90;;;;;;5084959;28;20700;-69
2022/04/02 01:23:04;;;;;;;3.73;2.10;;;1.80;99.90;;;;;;5096625;28;20740;-70
2022/04/02 01:25:35;;;;;;;4.20;2.33;;;1.90;99.90;;;;;;5091138;28;20693;-67
2022/04/02 01:28:03;;;;;;;5.03;2.50;;;1.80;99.90;;;;;;5083440;28;20189;-70
2022/04/02 01:30:31;;;;;;;4.27;2.80;;;1.90;99.90;;;;;;5081739;28;20195;-70
2022/04/02 01:32:58;;;;;;;3.50;2.57;;;1.80;99.90;;;;;;5090860;28;20280;-69
2022/04/02 01:35:25;;;;;;;4.37;2.60;;;1.80;99.90;;;;;;5084264;28;20223;-69
2022/04/02 01:37:52;;;;;;;4.83;2.80;;;1.80;99.90;;;;;;5087541;28;20250;-70
2022/04/02 01:40:19;;;;;;;3.33;2.37;;;1.80;99.90;;;;;;5096190;28;21635;-70
2022/04/02 01:42:47;;;;;;;5.70;2.07;;;1.70;99.90;;;;;;5090289;28;20677;-70
2022/04/02 01:45:15;;;;;;;3.23;2.33;;;1.70;99.90;;;;;;5086752;28;20236;-70
2022/04/02 01:47:42;;;;;;;3.70;2.20;;;1.70;99.90;;;;;;5072425;28;20204;-70
2022/04/02 01:50:12;;;;;;;5.33;2.70;;;1.80;99.90;;;;;;5096329;28;20204;-70
2022/04/02 01:52:39;;;;;;;4.63;2.20;;;1.80;99.90;;;;;;5086639;28;20463;-70
2022/04/02 01:55:06;;;;;;;3.27;2.57;;;1.80;99.90;;;;;;5093318;28;20216;-70
2022/04/02 01:57:33;;;;;;;3.63;2.60;;;1.80;99.90;;;;;;5083998;28;20193;-70
2022/04/02 02:00:00;;;;;;;3.97;2.60;;;1.90;99.90;;;;;;5101477;28;20192;-71
2022/04/02 02:02:27;;;;;;;3.50;2.20;;;1.80;99.90;;;;;;5094091;28;20194;-70
2022/04/02 02:04:54;;;;;;;6.30;2.40;;;1.90;99.90;;;;;;5101089;28;20243;-70
2022/04/02 02:07:20;;;;;;;4.37;2.50;;;1.90;99.90;;;;;;5094007;28;20205;-68
2022/04/02 02:09:47;;;;;;;3.73;2.57;;;1.90;99.90;;;;;;5093916;28;20489;-70
2022/04/02 02:12:15;;;;;;;6.60;2.80;;;1.90;99.90;;;;;;5096260;28;20193;-71
2022/04/02 02:14:42;;;;;;;3.00;2.47;;;2.00;99.90;;;;;;5093577;28;20212;-71
2022/04/02 02:17:08;;;;;;;3.43;2.33;;;1.90;99.90;;;;;;5091806;28;20993;-70
2022/04/02 02:19:35;;;;;;;4.63;2.57;;;1.90;99.90;;;;;;5092424;28;20193;-70
2022/04/02 02:22:02;;;;;;;6.20;2.47;;;2.00;99.90;;;;;;5096036;28;20220;-70
2022/04/02 02:24:29;;;;;;;3.27;2.30;;;2.00;99.90;;;;;;5092357;28;20216;-70
2022/04/02 02:26:55;;;;;;;3.83;2.20;;;2.00;99.90;;;;;;5097013;28;20225;-69
2022/04/02 02:29:22;;;;;;;3.67;2.60;;;2.00;99.90;;;;;;5086031;28;20258;-70
2022/04/02 02:31:49;;;;;;;4.30;2.40;;;1.90;99.90;;;;;;5097447;28;20204;-71
2022/04/02 02:37:01;;;;;;;4.40;2.40;;;2.00;99.90;;;;;;5090241;28;20714;-70
2022/04/02 02:39:28;;;;;;;3.43;2.57;;;2.00;99.90;;;;;;5091240;28;20202;-70
2022/04/02 02:41:54;;;;;;;3.70;2.43;;;1.90;99.90;;;;;;5094649;28;20579;-70
2022/04/02 02:44:21;;;;;;;4.73;2.50;;;1.90;99.90;;;;;;5085554;28;20225;-70
2022/04/02 02:46:48;;;;;;;5.43;2.70;;;1.90;99.90;;;;;;5093947;28;20218;-70
2022/04/02 02:49:15;;;;;;;4.00;2.20;;;1.90;99.90;;;;;;5100020;28;20186;-70
2022/04/02 02:51:41;;;;;;;4.27;2.13;;;1.80;99.90;;;;;;5096909;28;20198;-70
2022/04/02 02:54:08;;;;;;;3.27;2.23;;;1.80;99.90;;;;;;5090886;28;20198;-70
2022/04/02 02:56:34;;;;;;;5.53;2.50;;;1.80;99.90;;;;;;5087445;28;20209;-70
2022/04/02 02:59:02;;;;;;;4.53;1.97;;;1.80;99.90;;;;;;5090796;28;20282;-71
2022/04/02 03:01:29;;;;;;;3.27;2.37;;;1.80;99.90;;;;;;5089931;28;20189;-69
2022/04/02 03:03:55;;;;;;;7.30;2.50;;;1.90;99.90;;;;;;5089679;28;20230;-70
2022/04/02 03:06:22;;;;;;;4.03;2.50;;;1.80;99.90;;;;;;5094141;28;20206;-70
2022/04/02 03:08:49;;;;;;;2.73;2.33;;;1.80;99.90;;;;;;5090644;28;20206;-69
2022/04/02 03:11:16;;;;;;;4.47;2.27;;;1.80;99.90;;;;;;5089026;28;20185;-70
2022/04/02 03:13:43;;;;;;;4.53;2.60;;;1.80;99.90;;;;;;5092892;28;20201;-71
2022/04/02 03:16:10;;;;;;;3.57;2.60;;;1.80;99.90;;;;;;5093528;28;20236;-70
2022/04/02 03:18:37;;;;;;;4.10;2.60;;;1.70;99.90;;;;;;5083835;28;20198;-72
2022/04/02 03:21:04;;;;;;;3.33;2.30;;;1.70;99.90;;;;;;5093451;28;20200;-71
2022/04/02 03:23:32;;;;;;;5.27;2.53;;;1.60;99.90;;;;;;5093693;28;20610;-67
2022/04/02 03:25:58;;;;;;;3.87;2.70;;;1.70;99.90;;;;;;5097506;28;20298;-70
2022/04/02 03:28:25;;;;;;;3.40;2.60;;;1.70;99.90;;;;;;5085569;28;20198;-70
2022/04/02 03:30:52;;;;;;;4.10;2.73;;;1.70;99.90;;;;;;5092995;28;20284;-70
2022/04/02 03:33:20;;;;;;;6.47;2.53;;;1.60;99.90;;;;;;5090576;28;20213;-71
2022/04/02 03:35:47;;;;;;;3.87;2.60;;;1.60;99.90;;;;;;5084494;28;20218;-70
2022/04/02 03:38:13;;;;;;;4.40;2.97;;;1.60;99.90;;;;;;5087674;28;20693;-69
2022/04/02 03:40:41;;;;;;;3.53;2.33;;;1.60;99.90;;;;;;5079477;28;20193;-69
2022/04/02 03:43:07;;;;;;;3.10;2.37;;;1.60;99.90;;;;;;5066515;28;20692;-70
2022/04/02 03:45:34;;;;;;;3.73;2.60;;;1.60;99.90;;;;;;5089437;28;20209;-69
2022/04/02 03:48:01;;;;;;;3.00;2.33;;;1.70;99.90;;;;;;5088548;28;20193;-70
2022/04/02 03:50:28;;;;;;;4.40;2.37;;;1.70;99.90;;;;;;5094235;28;20197;-70
2022/04/02 03:52:55;;;;;;;3.40;2.43;;;1.70;99.90;;;;;;5083581;28;20567;-71
2022/04/02 03:55:22;;;;;;;2.90;2.40;;;1.70;99.90;;;;;;5096056;28;20591;-71
2022/04/02 03:57:49;;;;;;;3.83;2.60;;;1.80;99.90;;;;;;5095909;28;20205;-69
2022/04/02 04:00:16;;;;;;;3.57;2.30;;;1.70;99.90;;;;;;5091490;28;20189;-70
2022/04/02 04:02:43;;;;;;;4.33;2.43;;;1.70;99.90;;;;;;5089239;28;20414;-70
2022/04/02 04:05:10;;;;;;;5.77;2.70;;;1.80;99.90;;;;;;5096291;28;20225;-68
2022/04/02 04:07:37;;;;;;;5.77;2.50;;;1.80;99.90;;;;;;5085425;28;20834;-69
2022/04/02 04:10:05;;;;;;;3.67;2.57;;;1.80;99.90;;;;;;5091644;28;20214;-71
2022/04/02 04:12:32;;;;;;;4.37;2.57;;;1.80;99.90;;;;;;5096766;28;20526;-69
2022/04/02 04:14:58;;;;;;;5.60;2.80;;;1.90;99.90;;;;;;5093833;28;20524;-67
2022/04/02 04:17:25;;;;;;;3.97;2.60;;;1.90;99.90;;;;;;5083160;28;20210;-69
2022/04/02 04:19:52;;;;;;;4.00;2.80;;;1.80;99.90;;;;;;5100729;28;20209;-70
2022/04/02 04:22:18;;;;;;;4.27;2.77;;;1.80;99.90;;;;;;5084846;28;20194;-71
2022/04/02 04:24:45;;;;;;;5.10;2.93;;;1.80;99.90;;;;;;5091866;28;20232;-70
2022/04/02 04:27:12;;;;;;;3.97;2.77;;;1.80;99.90;;;;;;5098170;28;20189;-70
2022/04/02 04:29:38;;;;;;;3.47;2.40;;;1.80;99.90;;;;;;5089777;28;20197;-70
2022/04/02 04:32:06;;;;;;;4.93;3.30;;;1.80;99.90;;;;;;5095446;28;20193;-71
2022/04/02 04:34:33;;;;;;;3.77;2.83;;;1.90;99.90;;;;;;5088428;28;20206;-70
2022/04/02 04:37:00;;;;;;;7.67;3.17;;;1.80;99.90;;;;;;5090343;28;20218;-70
2022/04/02 04:39:26;;;;;;;7.77;3.03;;;1.80;99.90;;;;;;5086945;28;20197;-70
2022/04/02 04:41:53;;;;;;;4.33;2.93;;;1.80;99.90;;;;;;5087068;28;20221;-71
2022/04/02 04:44:20;;;;;;;2.87;2.20;;;1.80;99.90;;;;;;5087621;28;20295;-70
2022/04/02 04:46:46;;;;;;;4.83;2.70;;;1.70;99.90;;;;;;5090553;28;20234;-72
2022/04/02 04:49:13;;;;;;;4.37;2.70;;;1.60;99.90;;;;;;5092465;28;20198;-71
2022/04/02 04:51:40;;;;;;;3.47;2.70;;;1.60;99.90;;;;;;5094557;28;20266;-72
2022/04/02 04:54:06;;;;;;;3.10;2.67;;;1.60;99.90;;;;;;5083959;28;20201;-70
2022/04/02 04:56:33;;;;;;;4.33;2.77;;;1.60;99.90;;;;;;5087747;28;20217;-68
2022/04/02 04:59:00;;;;;;;5.93;2.90;;;1.60;99.90;;;;;;5088250;28;20200;-69
2022/04/02 05:01:28;;;;;;;3.70;3.23;;;1.60;99.90;;;;;;5073538;28;20303;-69
2022/04/02 05:03:54;;;;;;;5.73;3.23;;;1.50;99.90;;;;;;5087869;28;20221;-70
2022/04/02 05:06:21;;;;;;;5.53;3.20;;;1.50;99.90;;;;;;5089289;28;20223;-71
2022/04/02 05:08:48;;;;;;;5.50;3.47;;;1.50;99.90;;;;;;5090723;28;20212;-71
2022/04/02 05:11:15;;;;;;;4.60;3.30;;;1.50;99.90;;;;;;5078937;28;20194;-70
2022/04/02 05:13:42;;;;;;;3.43;2.57;;;1.50;99.90;;;;;;5086907;28;20194;-71
2022/04/02 05:16:09;;;;;;;3.93;3.07;;;1.40;99.90;;;;;;5096576;28;20714;-70
2022/04/02 05:18:37;;;;;;;4.43;2.97;;;1.50;99.90;;;;;;5090012;28;20190;-69
2022/04/02 05:21:03;;;;;;;7.43;3.40;;;1.40;99.90;;;;;;5091796;28;20186;-73
2022/04/02 05:23:30;;;;;;;4.23;3.07;;;1.40;99.90;;;;;;5091645;28;20277;-71
2022/04/02 05:25:58;;;;;;;4.77;3.30;;;1.40;99.90;;;;;;5089762;28;20219;-70
2022/04/02 05:28:25;;;;;;;4.87;3.00;;;1.40;99.90;;;;;;5089871;28;20654;-70
2022/04/02 05:30:51;;;;;;;4.57;3.10;;;1.40;99.90;;;;;;5090346;28;20195;-71
2022/04/02 05:33:19;;;;;;;5.10;3.37;;;1.50;99.90;;;;;;5095880;28;20205;-72
2022/04/02 05:36:06;;;;;;;6.53;3.20;;;1.60;99.90;;;;;;5086634;28;20243;-71
2022/04/02 05:38:33;;;;;;;5.30;3.13;;;1.50;99.90;;;;;;5091820;28;20205;-71
2022/04/02 05:41:00;;;;;;;4.43;3.27;;;1.50;99.90;;;;;;5090864;28;20193;-72
2022/04/02 05:43:27;;;;;;;5.10;3.40;;;1.60;99.90;;;;;;5087767;28;20205;-70
2022/04/02 05:45:54;;;;;;;4.80;3.40;;;1.50;99.90;;;;;;5079810;28;20718;-72
2022/04/02 05:48:21;;;;;;;5.23;3.33;;;1.50;99.90;;;;;;5092012;28;20185;-69
2022/04/02 05:50:48;;;;;;;4.50;2.90;;;1.50;99.90;;;;;;5093691;28;20206;-68
2022/04/02 05:53:15;;;;;;;5.80;3.23;;;1.60;99.90;;;;;;5087549;28;20199;-68
2022/04/02 05:55:42;;;;;;;5.47;3.10;;;1.60;99.90;;;;;;5086562;28;20323;-69
2022/04/02 05:58:12;;;;;;;5.20;3.43;;;1.50;99.90;;;;;;5092894;28;20637;-69
2022/04/02 06:00:39;;;;;;;5.37;3.60;;;1.50;99.90;;;;;;5086679;28;20254;-70
2022/04/02 06:03:06;;;;;;;7.57;4.20;;;1.50;99.90;;;;;;5085762;28;20283;-70
2022/04/02 06:05:34;;;;;;;4.80;3.60;;;1.50;99.90;;;;;;5065810;28;20228;-69
2022/04/02 06:08:01;;;;;;;4.47;3.13;;;1.50;99.90;;;;;;5088649;28;20197;-71
2022/04/02 06:10:27;;;;;;;4.37;2.77;;;1.50;99.90;;;;;;5070886;28;20670;-72
2022/04/02 06:12:54;;;;;;;4.67;2.80;;;1.50;99.90;;;;;;5084002;28;20205;-71
2022/04/02 06:15:24;;;;;;;3.93;2.53;;;1.60;99.90;;;;;;5089498;28;20902;-69
2022/04/02 06:17:51;;;;;;;6.87;3.40;;;1.60;99.90;;;;;;5092224;28;20198;-71
2022/04/02 06:20:18;;;;;;;4.40;3.47;;;1.60;99.90;;;;;;5092389;28;20197;-68
2022/04/02 06:22:45;;;;;;;4.27;2.93;;;1.70;99.90;;;;;;5092597;28;20209;-70
2022/04/02 06:25:11;;;;;;;4.27;3.10;;;1.70;99.90;;;;;;5087721;28;20233;-68
2022/04/02 06:27:45;;;;;;;5.20;3.50;;;1.70;99.90;;;;;;5091871;28;20576;-70
2022/04/02 06:30:14;;;;;;;6.17;3.47;;;1.70;99.90;;;;;;5094405;28;20577;-71
2022/04/02 06:32:41;;;;;;;5.07;3.20;;;1.70;99.90;;;;;;5086461;28;20205;-68
2022/04/02 06:35:08;;;;;;;5.03;3.23;;;1.80;99.90;;;;;;5072487;28;20213;-69
2022/04/02 06:37:36;;;;;;;4.00;3.20;;;1.80;99.90;;;;;;5092942;28;20200;-70
2022/04/02 06:40:05;;;;;;;6.77;3.57;;;1.80;99.90;;;;;;5086484;28;20749;-71
2022/04/02 06:42:32;;;;;;;4.77;3.23;;;1.70;99.90;;;;;;5088186;28;20198;-68
2022/04/02 06:44:58;;;;;;;4.00;2.87;;;1.80;99.90;;;;;;5091282;28;20214;-71
2022/04/02 06:47:30;;;;;;;6.87;3.50;;;1.90;99.90;;;;;;5081014;28;20194;-70
2022/04/02 06:49:58;;;;;;;7.17;3.70;;;2.00;99.90;;;;;;5092677;28;20202;-70
2022/04/02 06:52:25;;;;;;;5.57;3.13;;;2.00;99.90;;;;;;5083534;28;20190;-69
2022/04/02 06:54:52;;;;;;;5.13;3.37;;;1.90;99.90;;;;;;5096796;28;20198;-68
2022/04/02 06:57:22;;;;;;;5.33;3.40;;;2.00;99.90;;;;;;5093363;28;20195;-67
2022/04/02 06:59:49;;;;;;;3.97;2.87;;;2.00;99.90;;;;;;5098394;28;20722;-70
2022/04/02 07:02:16;;;;;;;4.60;2.93;;;2.10;99.90;;;;;;5081663;28;20204;-69
2022/04/02 07:04:43;;;;;;;5.33;3.20;;;2.20;99.90;;;;;;5095733;28;20226;-71
2022/04/02 07:07:10;;;;;;;4.47;3.10;;;2.20;99.90;;;;;;5089823;28;20201;-67
2022/04/02 07:09:37;;;;;;;4.00;2.60;;;2.30;99.90;;;;;;5088051;28;20661;-68
2022/04/02 07:12:04;;;;;;;10.90;2.90;;;2.40;99.90;;;;;;5086259;28;20560;-69
2022/04/02 07:14:31;;;;;;;4.43;2.97;;;2.50;99.90;;;;;;5084380;28;20192;-67
2022/04/02 07:16:58;;;;;;;6.83;3.10;;;2.40;99.90;;;;;;5095750;28;20211;-68
2022/04/02 07:19:25;;;;;;;8.17;3.23;;;2.50;99.90;;;;;;5087007;28;20200;-71
2022/04/02 07:21:53;;;;;;;6.50;3.43;;;2.70;99.90;;;;;;5090898;28;20199;-70
2022/04/02 07:24:21;;;;;;;5.60;3.17;;;2.60;99.90;;;;;;5090376;28;20191;-69
2022/04/02 07:26:48;;;;;;;3.50;2.70;;;2.60;99.90;;;;;;5090045;28;20208;-69
2022/04/02 07:29:16;;;;;;;6.90;3.20;;;2.50;99.90;;;;;;5084158;28;20194;-70
2022/04/02 07:31:45;;;;;;;7.00;3.00;;;2.40;99.90;;;;;;5091207;28;20199;-67
2022/04/02 07:34:19;;;;;;;5.47;3.07;;;2.40;99.90;;;;;;5087798;28;20194;-71
2022/04/02 07:37:07;;;;;;;6.80;3.10;;;2.40;99.90;;;;;;5086724;28;20219;-71
2022/04/02 07:39:37;;;;;;;4.33;2.97;;;2.40;99.90;;;;;;5084384;28;20201;-71
2022/04/02 07:42:32;;;;;;;5.37;3.03;;;2.40;99.90;;;;;;5093542;28;20579;-71
2022/04/02 07:45:08;;;;;;;4.43;3.10;;;2.40;99.90;;;;;;5093803;28;20212;-65
2022/04/02 07:47:37;;;;;;;4.73;2.57;;;2.50;99.90;;;;;;5092672;28;20269;-69
2022/04/02 07:50:09;;;;;;;4.57;3.03;;;2.70;99.90;;;;;;5089639;28;20240;-69
2022/04/02 07:52:36;;;;;;;3.90;2.87;;;2.70;99.90;;;;;;5086416;28;20215;-68
2022/04/02 07:55:07;;;;;;;5.13;3.10;;;2.90;99.90;;;;;;5096068;28;20202;-68
2022/04/02 07:57:45;;;;;;;5.73;3.00;;;2.90;99.90;;;;;;5087420;28;20196;-69
2022/04/02 08:00:19;;;;;;;4.03;2.90;;;2.90;99.90;;;;;;5099920;28;20286;-70
2022/04/02 08:02:48;;;;;;;4.37;2.50;;;2.80;99.90;;;;;;5079814;28;20664;-70
2022/04/02 08:05:17;;;;;;;5.63;3.03;;;2.90;99.90;;;;;;5084626;28;20224;-70
2022/04/02 08:07:49;;;;;;;4.60;3.17;;;2.80;99.90;;;;;;5079254;28;20215;-70
2022/04/02 08:10:19;;;;;;;4.60;3.30;;;2.90;99.90;;;;;;5095273;28;20188;-71
2022/04/02 08:12:46;;;;;;;5.60;3.27;;;2.90;99.90;;;;;;5079844;28;20658;-70
2022/04/02 08:15:16;;;;;;;5.23;2.87;;;3.00;99.90;;;;;;5082187;28;20213;-70
2022/04/02 08:17:45;;;;;;;4.63;3.13;;;3.10;99.90;;;;;;5097885;28;20201;-70
2022/04/02 08:20:15;;;;;;;5.77;3.17;;;3.20;99.90;;;;;;5097519;28;20204;-68
2022/04/02 08:22:42;;;;;;;4.40;2.73;;;3.30;99.90;;;;;;5097025;28;20249;-69
2022/04/02 08:25:09;;;;;;;4.23;2.93;;;3.30;99.90;;;;;;5096807;28;20590;-71
2022/04/02 08:28:13;;;;;;;3.40;2.70;;;3.40;99.90;;;;;;5071199;28;20696;-69
2022/04/02 08:30:51;;;;;;;4.57;2.80;;;3.50;99.90;;;;;;5074038;28;20683;-71
2022/04/02 08:33:44;;;;;;;3.90;2.90;;;3.50;99.90;;;;;;5083814;28;20200;-68
2022/04/02 08:36:27;;;;;;;3.97;2.73;;;3.60;99.90;;;;;;5085303;28;20216;-69
2022/04/02 08:39:13;;;;;;;4.00;2.67;;;3.60;99.90;;;;;;5100408;28;20262;-68
2022/04/02 08:42:24;;;;;;;4.13;2.83;;;3.70;99.90;;;;;;5076964;28;20204;-68
2022/04/02 08:45:10;;;;;;;4.90;3.07;;;3.90;99.90;;;;;;4975443;28;20224;-69
2022/04/02 08:48:04;;;;;;;3.63;2.80;;;3.90;99.90;;;;;;5074595;28;20197;-66
2022/04/02 08:50:36;;;;;;;5.17;2.90;;;4.10;99.90;;;;;;5080530;28;20207;-69
2022/04/02 08:53:17;;;;;;;4.73;3.30;;;4.10;99.90;;;;;;5074295;28;20197;-66
2022/04/02 08:55:59;;;;;;;5.60;2.73;;;4.10;99.90;;;;;;5085471;28;20225;-68
2022/04/02 08:58:45;;;;;;;4.87;2.70;;;4.40;99.90;;;;;;5080963;28;20574;-66
2022/04/02 09:01:22;;;;;;;4.53;2.47;;;4.40;99.90;;;;;;5085912;28;20247;-68
2022/04/02 09:04:20;;;;;;;3.63;2.60;;;4.40;99.90;;;;;;5094707;28;20284;-70
2022/04/02 09:07:08;;;;;;;3.50;2.40;;;4.50;99.90;;;;;;5080002;28;20216;-69
2022/04/02 09:09:56;;;;;;;3.87;2.50;;;4.60;99.90;;;;;;5077754;28;21077;-67
2022/04/02 09:12:51;;;;;;;4.60;2.80;;;4.60;99.90;;;;;;5081738;28;20556;-68
2022/04/02 09:15:37;;;;;;;4.03;2.97;;;4.80;99.90;;;;;;5088062;28;20214;-69
2022/04/02 09:18:16;;;;;;;4.30;2.53;;;4.60;99.90;;;;;;5082959;28;20200;-68
2022/04/02 09:20:53;;;;;;;5.50;2.50;;;4.60;99.90;;;;;;5081002;28;20194;-70
2022/04/02 09:23:43;;;;;;;6.70;2.70;;;4.90;99.90;;;;;;5075507;28;20197;-67
2022/04/02 09:26:40;;;;;;;4.47;2.83;;;4.90;99.90;;;;;;5071993;28;20762;-68
2022/04/02 09:29:17;;;;;;;4.67;2.90;;;5.00;99.90;;;;;;5078200;28;20188;-67
2022/04/02 09:31:49;;;;;;;3.73;2.47;;;5.00;99.90;;;;;;5098388;28;20243;-69
2022/04/02 09:34:58;;;;;;;3.97;2.80;;;5.10;99.90;;;;;;5092000;28;20193;-69
2022/04/02 09:37:43;;;;;;;3.77;2.60;;;5.20;99.90;;;;;;5089135;28;20193;-70
2022/04/02 09:40:11;;;;;;;4.10;2.47;;;5.30;99.90;;;;;;5080957;28;20304;-70
2022/04/02 09:42:43;;;;;;;4.00;2.90;;;5.30;99.90;;;;;;5079317;28;20553;-71
2022/04/02 09:45:14;;;;;;;4.33;2.83;;;5.30;99.90;;;;;;5082501;28;20328;-71
2022/04/02 09:47:47;;;;;;;3.10;2.67;;;5.30;99.90;;;;;;5057202;28;20197;-71
2022/04/02 09:50:16;;;;;;;3.80;2.67;;;5.50;99.90;;;;;;5074552;28;20207;-71
2022/04/02 09:52:57;;;;;;;4.10;2.83;;;5.60;99.90;;;;;;5081061;28;20201;-71
2022/04/02 09:55:37;;;;;;;4.40;3.03;;;5.60;99.90;;;;;;5075274;28;20722;-70
2022/04/02 09:58:23;;;;;;;4.20;2.90;;;5.40;99.90;;;;;;5069658;28;20189;-71
2022/04/02 10:01:08;;;;;;;3.97;2.83;;;5.20;99.90;;;;;;5072714;28;20685;-71
2022/04/02 10:04:00;;;;;;;6.13;2.97;;;5.40;99.90;;;;;;5084073;28;20223;-73
2022/04/02 10:06:42;;;;;;;4.27;3.07;;;5.20;99.90;;;;;;5072107;28;20222;-74
2022/04/02 10:09:13;;;;;;;4.27;2.80;;;5.20;99.90;;;;;;5080049;28;20240;-70
2022/04/02 10:11:58;;;;;;;4.03;2.77;;;5.20;99.90;;;;;;5076309;28;20199;-71
2022/04/02 10:14:27;;;;;;;5.73;3.00;;;5.20;99.90;;;;;;5076296;28;20186;-72
2022/04/02 10:17:04;;;;;;;4.27;3.13;;;5.40;99.90;;;;;;5070467;28;20214;-71
2022/04/02 10:19:36;;;;;;;4.53;3.10;;;5.40;99.90;;;;;;5078739;28;20205;-69
2022/04/02 10:22:08;;;;;;;4.70;3.27;;;5.60;99.90;;;;;;5077096;28;20204;-71
2022/04/02 10:24:40;;;;;;;5.83;3.50;;;5.90;99.90;;;;;;5080129;28;20195;-71
2022/04/02 10:27:10;;;;;;;3.63;2.70;;;6.00;99.90;;;;;;5074225;28;20228;-72
2022/04/02 10:30:07;;;;;;;5.70;3.30;;;6.20;99.90;;;;;;5074615;28;20198;-70
2022/04/02 10:32:46;;;;;;;4.60;3.20;;;6.30;99.90;;;;;;5079847;28;20200;-71
2022/04/02 10:35:14;;;;;;;6.47;3.60;;;6.00;99.90;;;;;;5086697;28;20223;-69
2022/04/02 10:37:54;;;;;;;6.23;3.43;;;5.70;99.90;;;;;;5096987;28;20507;-71
2022/04/02 10:40:24;;;;;;;4.70;3.13;;;5.60;99.90;;;;;;5082143;28;20693;-71
2022/04/02 10:42:55;;;;;;;5.07;3.60;;;5.50;99.90;;;;;;5055724;28;20208;-71
2022/04/02 10:45:22;;;;;;;7.27;3.53;;;5.50;99.90;;;;;;5081788;28;20610;-69
2022/04/02 10:48:10;;;;;;;5.73;3.43;;;5.60;99.90;;;;;;5095793;28;20654;-72
2022/04/02 10:50:39;;;;;;;5.53;3.20;;;5.80;99.90;;;;;;5081581;28;20200;-72
2022/04/02 10:53:09;;;;;;;7.23;3.50;;;5.40;99.90;;;;;;5081577;28;20190;-73
2022/04/02 10:55:45;;;;;;;8.50;3.13;;;5.50;99.90;;;;;;5079895;28;20216;-70
2022/04/02 10:58:13;;;;;;;5.70;3.30;;;5.50;99.90;;;;;;5093887;28;20211;-71
2022/04/02 11:00:45;;;;;;;5.03;3.27;;;5.30;99.90;;;;;;5098641;28;20668;-71
2022/04/02 11:03:24;;;;;;;6.73;3.67;;;5.30;99.90;;;;;;5086392;28;20575;-71
2022/04/02 11:05:51;;;;;;;4.73;3.27;;;5.70;99.90;;;;;;5097351;28;20221;-69
2022/04/02 11:08:22;;;;;;;5.77;3.73;;;5.80;99.90;;;;;;5095663;28;20202;-71
2022/04/02 11:10:49;;;;;;;5.50;3.10;;;5.70;99.90;;;;;;5093985;28;20199;-71
2022/04/02 11:13:30;;;;;;;5.30;3.40;;;5.90;99.90;;;;;;5087139;28;20200;-70
2022/04/02 11:15:59;;;;;;;5.00;3.53;;;6.00;99.90;;;;;;5072522;28;20219;-71
2022/04/02 11:18:26;;;;;;;5.37;3.47;;;5.90;99.90;;;;;;5090749;28;20200;-71
2022/04/02 11:21:04;;;;;;;5.37;3.50;;;5.90;99.90;;;;;;5076173;28;20196;-70
2022/04/02 11:23:46;;;;;;;4.33;3.57;;;5.80;99.90;;;;;;5059433;28;20675;-71
2022/04/02 11:26:18;;;;;;;4.77;3.57;;;5.80;99.90;;;;;;5086289;28;20222;-69
2022/04/02 11:28:52;;;;;;;4.77;3.57;;;5.70;99.90;;;;;;5094923;28;20669;-71
2022/04/02 11:31:28;;;;;;;4.37;3.37;;;5.80;99.90;;;;;;5083616;28;20197;-70
2022/04/02 11:33:58;;;;;;;5.53;3.60;;;5.70;99.90;;;;;;5089654;28;20198;-70
2022/04/02 11:36:46;;;;;;;4.87;3.13;;;6.00;99.90;;;;;;5081767;28;20604;-70
2022/04/02 11:39:36;;;;;;;5.43;3.40;;;6.20;99.90;;;;;;5067301;28;20198;-71
2022/04/02 11:42:07;;;;;;;5.23;3.77;;;6.30;99.90;;;;;;5082927;28;20577;-70
2022/04/02 11:44:37;;;;;;;4.77;3.50;;;6.40;99.90;;;;;;5091915;28;20291;-72
2022/04/02 11:47:08;;;;;;;5.80;3.80;;;6.30;99.90;;;;;;5080051;28;20226;-71
2022/04/02 11:49:40;;;;;;;4.93;3.57;;;6.30;99.90;;;;;;5092024;28;20199;-70
2022/04/02 11:52:08;;;;;;;8.77;3.90;;;6.10;99.90;;;;;;5087178;28;20185;-71
2022/04/02 11:54:50;;;;;;;7.60;3.60;;;6.00;99.90;;;;;;5080929;28;20245;-70
2022/04/02 11:57:18;;;;;;;5.70;3.67;;;5.90;99.90;;;;;;5090678;28;20198;-70
2022/04/02 11:59:53;;;;;;;6.20;3.60;;;5.90;99.90;;;;;;5097390;28;20584;-71
2022/04/02 12:02:36;;;;;;;7.03;3.77;;;5.90;99.90;;;;;;5084087;28;20192;-71
2022/04/02 12:05:06;;;;;;;5.67;3.73;;;5.80;99.90;;;;;;5085045;28;20335;-72
2022/04/02 12:07:50;;;;;;;5.00;3.50;;;5.70;99.90;;;;;;5084277;28;20716;-72
2022/04/02 12:10:44;;;;;;;6.90;3.90;;;5.70;99.90;;;;;;5080209;28;20219;-70
2022/04/02 12:13:11;;;;;;;7.30;3.70;;;5.90;99.90;;;;;;5078925;28;20201;-72
2022/04/02 12:15:39;;;;;;;3.73;3.20;;;5.80;99.90;;;;;;5086028;28;20222;-72
2022/04/02 12:18:08;;;;;;;3.93;3.10;;;5.90;99.90;;;;;;5080361;28;20200;-73
2022/04/02 12:20:37;;;;;;;5.50;3.20;;;6.20;99.90;;;;;;5074929;28;20193;-71
2022/04/02 12:23:05;;;;;;;4.50;3.13;;;6.40;99.90;;;;;;5084673;28;20725;-72
2022/04/02 12:25:32;;;;;;;4.37;3.30;;;6.50;99.90;;;;;;5087870;28;20218;-72
2022/04/02 12:28:01;;;;;;;5.67;2.93;;;6.90;99.90;;;;;;5084548;28;20210;-73
2022/04/02 12:30:31;;;;;;;4.97;3.13;;;7.00;99.90;;;;;;5087938;28;20198;-72
2022/04/02 12:33:07;;;;;;;5.90;3.10;;;7.50;99.90;;;;;;5079581;28;20564;-71
2022/04/02 12:35:34;;;;;;;5.37;3.10;;;7.40;99.90;;;;;;5084497;28;20278;-72
2022/04/02 12:38:05;;;;;;;4.93;3.10;;;7.40;99.90;;;;;;5087624;28;20207;-72
2022/04/02 12:40:40;;;;;;;6.00;3.20;;;7.40;99.90;;;;;;5092846;28;20191;-71
2022/04/02 12:43:09;;;;;;;4.93;2.93;;;7.20;99.90;;;;;;5065689;28;20212;-71
2022/04/02 12:45:37;;;;;;;6.17;3.03;;;7.10;99.90;;;;;;5088837;28;20214;-71
2022/04/02 12:48:17;;;;;;;4.13;2.83;;;7.00;99.90;;;;;;5081390;28;20283;-72
2022/04/02 12:50:58;;;;;;;8.03;2.83;;;7.30;99.90;;;;;;5084155;28;20233;-71
2022/04/02 12:53:36;;;;;;;5.33;2.90;;;7.10;99.90;;;;;;5080179;28;20202;-73
2022/04/02 12:56:10;;;;;;;5.03;2.73;;;7.00;99.90;;;;;;5076816;28;20213;-74
2022/04/02 12:58:43;;;;;;;4.00;3.03;;;6.80;99.90;;;;;;5082346;28;20482;-71
2022/04/02 13:01:14;;;;;;;5.53;2.70;;;6.70;99.90;;;;;;5090078;28;20194;-71
2022/04/02 13:03:47;;;;;;;3.07;2.57;;;6.70;99.90;;;;;;5085448;28;20205;-70
2022/04/02 13:06:22;;;;;;;3.53;2.60;;;6.70;99.90;;;;;;5081136;28;20214;-72
2022/04/02 13:08:54;;;;;;;4.50;2.70;;;6.70;99.90;;;;;;5090030;28;20208;-72
2022/04/02 13:11:52;;;;;;;4.27;2.80;;;6.60;99.90;;;;;;5093310;28;20189;-72
2022/04/02 13:14:38;;;;;;;4.30;2.63;;;6.50;99.90;;;;;;5053253;28;20185;-71
2022/04/02 13:17:13;;;;;;;5.23;3.20;;;6.40;99.90;;;;;;5086560;28;20219;-72
2022/04/02 13:23:07;;;;;;;3.77;2.77;;;6.40;99.90;;;;;;5083792;28;20198;-73
2022/04/02 13:25:47;;;;;;;8.13;2.90;;;6.80;99.90;;;;;;5084820;28;20240;-71